Time;durP1;ratioP1;P1;durP2;ratioP2;P2;SDS_P1;SDS_P2;PMS_P1;PMS_P2;Temp;Humidity;BMP_temperature;BMP_pressure;BME280_temperature;BME280_humidity;BME280_pressure;Samples;Min_cycle;Max_cycle;Signal;HPM_P1;HPM_P2
2022/08/08 00:00:13;;;;;;;3.40;2.92;;;;;;;15.69;79.65;100949.62;2790327;85;21126;-61
2022/08/08 00:04:46;;;;;;;4.67;2.90;;;;;;;15.69;79.43;100952.78;2844022;82;21074;-62
2022/08/08 00:09:30;;;;;;;8.03;3.00;;;;;;;15.68;80.07;100943.91;2757767;84;21026;-62
2022/08/08 00:13:57;;;;;;;8.60;3.00;;;;;;;15.66;79.46;100942.34;2709608;88;20978;-62
2022/08/08 00:18:21;;;;;;;5.90;2.85;;;;;;;15.62;79.40;100943.11;2752243;86;21294;-62
2022/08/08 00:22:50;;;;;;;4.05;2.12;;;;;;;15.59;79.60;100938.55;2653332;88;21118;-62
2022/08/08 00:26:56;;;;;;;5.72;2.50;;;;;;;15.52;79.60;100944.47;2694596;88;21015;-62
2022/08/08 00:30:59;;;;;;;4.10;3.58;;;;;;;15.31;81.39;100945.11;2688459;87;21050;-61
2022/08/08 00:40:46;;;;;;;4.50;3.42;;;;;;;15.17;81.54;100951.26;2706220;87;21015;-62
2022/08/08 00:45:11;;;;;;;2.25;2.05;;;;;;;15.19;81.67;100952.44;2750126;83;21116;-62
2022/08/08 00:49:43;;;;;;;5.47;3.25;;;;;;;15.16;83.42;100959.42;2887793;82;21020;-62
2022/08/08 00:54:15;;;;;;;4.35;3.30;;;;;;;14.99;83.30;100962.65;2844103;83;21002;-62
2022/08/08 00:58:50;;;;;;;3.47;2.27;;;;;;;15.04;82.96;100960.05;2891414;81;20987;-62
2022/08/08 01:03:25;;;;;;;7.50;3.65;;;;;;;15.07;82.87;100963.78;2908989;80;20978;-62
2022/08/08 01:07:48;;;;;;;6.15;2.37;;;;;;;15.08;84.88;100958.77;2879899;81;21009;-62
2022/08/08 01:12:36;;;;;;;3.35;2.62;;;;;;;15.04;84.38;100951.53;2926165;80;21006;-62
2022/08/08 01:17:00;;;;;;;12.20;4.35;;;;;;;15.01;85.47;100956.31;2874608;82;21009;-62
2022/08/08 01:21:33;;;;;;;5.53;2.05;;;;;;;14.96;85.24;100954.03;2905563;79;21017;-62
2022/08/08 01:26:06;;;;;;;3.30;2.87;;;;;;;14.93;84.90;100949.79;2906923;80;20966;-62
2022/08/08 01:31:04;;;;;;;3.98;2.85;;;;;;;14.93;84.93;100949.79;2898328;81;21058;-62
2022/08/08 01:35:44;;;;;;;6.20;2.75;;;;;;;14.92;84.60;100942.73;2878923;81;21030;-62
2022/08/08 01:40:11;;;;;;;6.35;2.85;;;;;;;14.95;84.58;100945.64;2956873;80;21039;-62
2022/08/08 01:45:03;;;;;;;6.15;3.60;;;;;;;14.98;84.22;100942.20;2874231;81;21002;-62
2022/08/08 01:49:31;;;;;;;3.02;2.72;;;;;;;15.01;84.41;100937.55;2941407;80;20991;-62
2022/08/08 01:54:21;;;;;;;4.67;2.70;;;;;;;14.79;85.87;100936.81;2941145;80;21078;-62
2022/08/08 01:58:49;;;;;;;4.00;3.35;;;;;;;14.71;86.06;100945.02;2941685;80;21682;-62
2022/08/08 02:03:25;;;;;;;4.72;3.87;;;;;;;14.64;86.18;100935.82;2940145;81;20932;-62
2022/08/08 02:07:46;;;;;;;3.42;2.72;;;;;;;14.60;85.65;100944.25;2942240;81;21010;-62
2022/08/08 02:11:48;;;;;;;5.20;2.85;;;;;;;14.57;85.03;100938.70;2959204;79;21216;-62
2022/08/08 02:16:01;;;;;;;5.60;3.77;;;;;;;14.59;84.76;100935.87;2907051;80;21072;-62
2022/08/08 02:20:14;;;;;;;5.10;3.37;;;;;;;14.53;85.08;100941.27;2910984;79;20942;-62
2022/08/08 02:24:26;;;;;;;3.05;2.77;;;;;;;14.55;85.04;100942.01;2880240;82;21049;-61
2022/08/08 02:29:06;;;;;;;4.80;3.35;;;;;;;14.55;84.96;100945.52;2916325;81;21015;-62
2022/08/08 02:33:46;;;;;;;7.33;4.10;;;;;;;14.57;84.79;100952.08;2922242;81;20958;-62
2022/08/08 02:38:27;;;;;;;5.35;3.90;;;;;;;14.59;84.54;100943.90;2873024;82;21037;-62
2022/08/08 02:43:12;;;;;;;5.03;2.95;;;;;;;14.59;84.22;100951.93;2857193;83;21022;-62
2022/08/08 02:48:00;;;;;;;5.62;3.10;;;;;;;14.56;84.15;100951.73;2921743;79;20990;-62
2022/08/08 02:52:19;;;;;;;5.55;2.83;;;;;;;14.43;84.55;100956.81;2889231;82;21025;-62
2022/08/08 02:56:56;;;;;;;3.67;2.45;;;;;;;14.38;84.48;100960.39;2936487;80;21054;-62
2022/08/08 03:01:29;;;;;;;8.13;4.28;;;;;;;14.38;84.34;100967.09;2939613;80;20979;-63
2022/08/08 03:06:18;;;;;;;5.45;2.95;;;;;;;14.35;84.20;100975.39;2937966;81;20999;-62
2022/08/08 03:11:05;;;;;;;3.08;2.77;;;;;;;14.20;84.00;100972.70;2933527;80;21045;-62
2022/08/08 03:15:28;;;;;;;2.98;2.45;;;;;;;14.06;84.08;100982.75;2857134;83;21056;-62
2022/08/08 03:20:10;;;;;;;4.00;1.98;;;;;;;14.01;84.11;100986.32;2739290;86;21083;-62
2022/08/08 03:24:02;;;;;;;4.70;3.15;;;;;;;14.02;84.23;100988.02;2775297;85;21078;-62
2022/08/08 03:38:04;;;;;;;4.28;2.90;;;;;;;14.00;84.81;100987.30;2757147;85;21055;-62
2022/08/08 03:42:06;;;;;;;3.47;2.92;;;;;;;14.03;85.11;100981.69;2757692;86;20979;-64
2022/08/08 03:46:58;;;;;;;3.10;2.72;;;;;;;14.09;85.28;100987.00;2768247;86;21102;-62
2022/08/08 03:50:59;;;;;;;5.53;3.33;;;;;;;14.15;85.42;100981.11;2767751;86;21007;-62
2022/08/08 03:55:01;;;;;;;3.10;2.80;;;;;;;14.19;85.87;100975.84;2769690;83;20959;-63
2022/08/08 03:59:03;;;;;;;3.02;2.80;;;;;;;14.23;85.82;100976.44;2890522;82;20970;-62
2022/08/08 04:03:07;;;;;;;3.08;2.55;;;;;;;14.26;86.40;100982.86;2893766;81;21006;-65
2022/08/08 04:07:12;;;;;;;2.63;2.00;;;;;;;14.19;86.77;100984.38;2895125;81;20982;-64
2022/08/08 04:11:13;;;;;;;7.72;3.98;;;;;;;14.30;87.26;100990.14;2938349;79;21527;-62
2022/08/08 04:15:15;;;;;;;6.17;3.42;;;;;;;14.42;87.95;100982.36;2878288;79;75133;-88
2022/08/08 04:19:17;;;;;;;2.98;2.17;;;;;;;14.56;88.54;100995.91;2861132;82;21039;-88
2022/08/08 04:23:18;;;;;;;4.92;3.25;;;;;;;14.87;91.48;100993.71;2853167;83;21006;-88
2022/08/08 04:27:20;;;;;;;4.80;2.30;;;;;;;15.84;99.59;101000.98;2898008;81;21561;-87
2022/08/08 04:31:22;;;;;;;10.13;3.00;;;;;;;17.10;97.45;101000.38;2874101;81;21344;-87
2022/08/08 04:35:23;;;;;;;2.80;2.15;;;;;;;18.22;82.44;100997.30;2892085;81;21585;-89
2022/08/08 04:39:25;;;;;;;2.83;2.35;;;;;;;19.22;77.63;101003.47;2855385;82;21035;-88
2022/08/08 04:43:27;;;;;;;2.42;2.05;;;;;;;19.89;74.97;101001.66;2881750;82;21535;-87
2022/08/08 04:47:29;;;;;;;3.47;2.27;;;;;;;20.37;73.37;101004.48;2886723;80;21003;-88
2022/08/08 04:51:31;;;;;;;4.87;2.90;;;;;;;20.85;70.25;101003.67;2900279;80;21070;-88
2022/08/08 04:55:33;;;;;;;3.55;2.35;;;;;;;21.26;69.11;101007.50;2881098;80;21037;-88
2022/08/08 04:59:34;;;;;;;5.08;2.72;;;;;;;21.55;66.46;101014.05;2857220;83;21066;-89
2022/08/08 05:03:36;;;;;;;3.58;2.62;;;;;;;22.02;64.02;101020.81;2871394;82;21030;-89
2022/08/08 05:07:38;;;;;;;4.62;2.25;;;;;;;22.25;64.16;101020.73;2876658;82;21046;-90
2022/08/08 05:11:40;;;;;;;6.47;2.72;;;;;;;22.39;64.28;101019.05;2902458;81;21101;-89
2022/08/08 05:15:42;;;;;;;5.65;3.80;;;;;;;22.58;62.95;101026.34;2905480;81;20999;-89
2022/08/08 05:19:43;;;;;;;3.83;3.42;;;;;;;22.88;62.59;101023.61;2911916;80;21016;-87
2022/08/08 05:23:45;;;;;;;8.23;4.15;;;;;;;23.19;61.80;101027.09;2891412;81;21049;-88
2022/08/08 05:27:46;;;;;;;3.58;2.20;;;;;;;23.29;59.50;101027.67;2896572;80;20999;-87
2022/08/08 05:31:48;;;;;;;6.17;3.25;;;;;;;23.51;59.29;101031.22;2868417;82;21004;-88
2022/08/08 05:35:52;;;;;;;4.00;2.95;;;;;;;23.58;58.94;101033.15;2861000;82;20989;-88
2022/08/08 05:39:55;;;;;;;3.45;2.58;;;;;;;23.64;57.63;101039.19;2869353;82;21012;-88
2022/08/08 05:44:11;;;;;;;4.25;3.20;;;;;;;23.71;56.49;101037.36;2843402;82;21083;-88
2022/08/08 05:48:13;;;;;;;4.00;3.20;;;;;;;23.64;59.25;101041.90;2865655;81;21464;-88
2022/08/08 05:52:16;;;;;;;6.42;4.05;;;;;;;23.68;58.08;101039.11;2875041;82;21476;-87
2022/08/08 05:56:19;;;;;;;3.95;3.35;;;;;;;23.69;58.73;101048.94;2884207;80;21519;-89
2022/08/08 06:00:23;;;;;;;5.00;2.83;;;;;;;23.88;56.93;101043.87;2885507;80;21008;-89
2022/08/08 06:04:28;;;;;;;3.77;2.92;;;;;;;24.05;57.31;101048.53;2882529;82;21011;-88
2022/08/08 06:08:37;;;;;;;3.67;3.37;;;;;;;24.32;56.56;101053.65;2866208;80;21055;-87
2022/08/08 06:12:43;;;;;;;2.70;2.50;;;;;;;24.60;56.35;101039.20;2912001;80;21007;-89
2022/08/08 06:16:45;;;;;;;4.67;2.70;;;;;;;24.97;54.67;101053.11;2855884;81;21110;-89
2022/08/08 06:20:47;;;;;;;3.92;3.58;;;;;;;25.53;53.69;101047.41;2859161;80;21101;-89
2022/08/08 06:24:49;;;;;;;5.28;2.83;;;;;;;25.78;53.12;101047.34;2899306;80;21084;-90
2022/08/08 06:29:10;;;;;;;3.83;2.42;;;;;;;26.14;52.59;101058.86;2879978;80;21019;-90
2022/08/08 06:33:12;;;;;;;3.77;3.02;;;;;;;26.44;52.53;101054.36;2903821;80;21050;-89
2022/08/08 06:37:19;;;;;;;4.47;3.20;;;;;;;26.40;51.81;101058.56;2896887;81;21632;-90
2022/08/08 06:41:19;;;;;;;6.20;4.75;;;;;;;26.18;52.28;101064.27;2896858;80;21083;-89
2022/08/08 06:45:22;;;;;;;7.00;4.62;;;;;;;26.16;52.14;101058.98;2907103;80;21086;-88
2022/08/08 06:49:24;;;;;;;4.08;3.17;;;;;;;26.28;52.59;101064.66;2868439;80;21526;-90
2022/08/08 06:53:26;;;;;;;3.52;2.45;;;;;;;26.64;50.79;101057.87;2875100;81;20999;-91
2022/08/08 06:57:27;;;;;;;2.17;1.98;;;;;;;26.86;50.44;101060.34;2850316;82;21050;-90
2022/08/08 07:01:46;;;;;;;3.42;2.52;;;;;;;27.06;48.13;101047.98;2866320;82;21020;-89
2022/08/08 07:05:50;;;;;;;6.72;2.05;;;;;;;27.16;47.85;101049.40;2854279;82;21047;-88
2022/08/08 07:10:04;;;;;;;2.17;1.98;;;;;;;27.22;47.87;101054.01;2883445;81;21030;-89
2022/08/08 07:14:08;;;;;;;2.10;1.73;;;;;;;27.23;47.50;101045.58;2880894;80;21526;-91
2022/08/08 07:18:10;;;;;;;4.08;1.62;;;;;;;27.14;47.97;101046.91;2853054;82;21097;-92
2022/08/08 07:22:16;;;;;;;4.53;2.12;;;;;;;27.31;47.68;101052.68;2854296;82;21042;-90
2022/08/08 07:26:21;;;;;;;3.85;1.85;;;;;;;27.40;47.06;101047.80;2899902;80;20980;-88
2022/08/08 07:30:22;;;;;;;3.12;2.12;;;;;;;27.26;46.78;101043.46;2895621;81;21014;-89
2022/08/08 07:34:26;;;;;;;3.02;1.77;;;;;;;26.96;48.49;101052.24;2902482;82;21030;-89
2022/08/08 07:38:29;;;;;;;5.00;1.32;;;;;;;27.02;48.27;101050.00;2903772;80;21577;-89
2022/08/08 07:42:31;;;;;;;2.62;1.50;;;;;;;27.23;48.01;101048.31;2902702;81;21007;-89
2022/08/08 07:46:33;;;;;;;2.37;0.90;;;;;;;27.37;48.58;101048.24;2885660;82;21034;-88
2022/08/08 07:50:37;;;;;;;1.90;0.82;;;;;;;27.54;46.61;101049.94;2896801;81;21369;-89
2022/08/08 07:54:59;;;;;;;1.85;0.70;;;;;;;27.51;45.61;101040.31;2899963;81;21046;-88
2022/08/08 07:59:02;;;;;;;1.87;1.00;;;;;;;27.59;45.25;101054.75;2901365;81;21033;-88
2022/08/08 08:03:13;;;;;;;7.70;1.60;;;;;;;27.56;45.10;101051.09;2929887;80;20988;-89
2022/08/08 08:07:15;;;;;;;3.45;0.57;;;;;;;27.46;45.19;101046.09;2903868;82;21082;-90
2022/08/08 08:11:22;;;;;;;2.37;0.65;;;;;;;27.30;46.38;101054.25;2897432;82;21050;-95
2022/08/08 08:15:29;;;;;;;6.58;1.87;;;;;;;27.18;45.30;101048.65;2906411;81;21527;-90
2022/08/08 08:19:31;;;;;;;3.90;1.10;;;;;;;26.98;45.36;101043.30;2772590;85;21095;-92
2022/08/08 08:23:33;;;;;;;1.98;0.60;;;;;;;26.69;46.64;101044.10;2812055;83;21496;-91
2022/08/08 08:27:35;;;;;;;1.12;0.85;;;;;;;26.52;45.69;101045.42;2820592;84;21004;-90
2022/08/08 08:31:36;;;;;;;1.32;0.78;;;;;;;26.58;45.58;101043.73;2827898;82;21257;-92
2022/08/08 08:35:38;;;;;;;1.62;0.82;;;;;;;26.52;46.11;101041.84;2825208;82;21001;-91
2022/08/08 08:39:40;;;;;;;1.75;0.65;;;;;;;26.59;46.07;101044.55;2828617;82;21538;-92
2022/08/08 08:43:43;;;;;;;1.32;0.85;;;;;;;26.51;46.15;101051.08;2835336;82;21039;-90
2022/08/08 08:47:45;;;;;;;1.17;0.68;;;;;;;26.44;46.42;101045.66;2777430;84;21023;-90
2022/08/08 08:51:48;;;;;;;1.98;1.37;;;;;;;26.34;46.78;101049.34;2778646;84;21023;-91
2022/08/08 08:55:51;;;;;;;1.00;0.70;;;;;;;26.30;47.32;101052.19;2831430;82;21037;-88
2022/08/08 08:59:55;;;;;;;5.30;1.77;;;;;;;26.09;45.08;101051.34;2836178;82;21095;-89
2022/08/08 09:04:07;;;;;;;3.75;0.75;;;;;;;26.06;46.99;101056.67;2842274;82;21029;-85
2022/08/08 09:08:09;;;;;;;1.22;0.95;;;;;;;25.96;47.82;101053.55;2734031;85;21497;-88
2022/08/08 09:12:11;;;;;;;1.77;1.07;;;;;;;26.00;46.29;101056.16;2843148;82;21058;-88
2022/08/08 09:16:13;;;;;;;2.17;0.70;;;;;;;26.12;47.30;101051.42;2815162;82;21020;-91
2022/08/08 09:20:15;;;;;;;3.65;0.98;;;;;;;25.85;46.03;101054.16;2833115;82;21605;-86
2022/08/08 09:24:17;;;;;;;2.72;0.90;;;;;;;25.90;47.07;101058.45;2845513;82;21594;-92
2022/08/08 09:28:19;;;;;;;1.35;0.55;;;;;;;26.01;46.35;101057.84;2849695;82;21047;-89
2022/08/08 09:32:46;;;;;;;6.05;0.82;;;;;;;26.21;46.17;101061.11;2857349;83;21003;-87
2022/08/08 09:36:56;;;;;;;1.05;0.68;;;;;;;26.38;46.18;101055.53;2853646;82;21016;-87
2022/08/08 09:41:05;;;;;;;1.57;0.93;;;;;;;26.61;47.39;101057.45;2904499;81;21074;-87
2022/08/08 09:45:14;;;;;;;1.75;1.05;;;;;;;26.72;46.32;101054.08;2907135;80;21035;-88
2022/08/08 09:49:18;;;;;;;2.37;0.57;;;;;;;26.64;47.20;101055.14;2910971;79;21497;-86
2022/08/08 09:53:20;;;;;;;1.15;1.05;;;;;;;26.76;45.39;101047.13;2891506;81;20956;-88
2022/08/08 09:57:36;;;;;;;2.87;0.85;;;;;;;26.70;47.62;101048.50;2901694;81;20964;-88
2022/08/08 10:01:38;;;;;;;2.37;0.88;;;;;;;26.76;47.31;101046.30;2883696;82;21058;-89
2022/08/08 10:05:40;;;;;;;0.88;0.85;;;;;;;26.53;45.64;101049.00;2845088;82;21007;-88
2022/08/08 10:09:46;;;;;;;1.95;0.70;;;;;;;26.18;47.31;101047.91;2918092;80;20971;-89
2022/08/08 10:13:59;;;;;;;0.70;0.50;;;;;;;25.90;46.53;101044.32;2946075;80;21077;-87
2022/08/08 10:18:01;;;;;;;3.08;0.62;;;;;;;25.81;46.51;101037.39;2846042;81;21296;-89
2022/08/08 10:22:05;;;;;;;1.55;0.50;;;;;;;25.76;46.21;101042.12;2800328;84;21411;-87
2022/08/08 10:26:33;;;;;;;3.10;1.17;;;;;;;25.91;45.42;101038.33;2844670;83;21050;-89
2022/08/08 10:30:34;;;;;;;1.15;0.57;;;;;;;25.98;44.72;101039.70;2797721;85;21071;-88
2022/08/08 10:34:44;;;;;;;0.82;0.68;;;;;;;26.20;44.58;101033.53;2806786;83;21039;-89
2022/08/08 10:38:46;;;;;;;2.15;0.78;;;;;;;26.31;44.64;101032.05;2836042;83;21004;-89
2022/08/08 10:43:01;;;;;;;2.25;0.37;;;;;;;26.33;43.68;101034.03;2844447;83;21030;-89
2022/08/08 10:47:19;;;;;;;1.47;0.82;;;;;;;26.27;43.06;101025.34;2843934;82;21082;-89
2022/08/08 10:51:27;;;;;;;2.92;0.93;;;;;;;26.36;43.38;101037.69;2806794;82;20998;-89
2022/08/08 10:55:29;;;;;;;0.60;0.30;;;;;;;26.47;43.40;101032.95;2844440;81;21045;-88
2022/08/08 10:59:31;;;;;;;0.78;0.60;;;;;;;26.43;44.02;101025.41;2868744;81;21056;-89
2022/08/08 11:03:43;;;;;;;1.40;0.40;;;;;;;26.54;43.52;101025.27;2828033;81;21004;-89
2022/08/08 11:07:52;;;;;;;2.95;0.65;;;;;;;26.57;42.78;101020.23;2843368;82;21474;-88
2022/08/08 11:11:53;;;;;;;4.33;0.57;;;;;;;26.26;42.92;101020.95;2842012;82;21522;-88
2022/08/08 11:15:55;;;;;;;2.47;0.50;;;;;;;26.15;44.14;101016.95;2848046;82;21037;-87
2022/08/08 11:19:58;;;;;;;1.67;0.50;;;;;;;26.30;44.32;101016.73;2872645;82;21034;-88
2022/08/08 11:24:04;;;;;;;2.80;0.40;;;;;;;26.43;43.17;101018.05;2844391;83;21106;-89
2022/08/08 11:28:08;;;;;;;0.60;0.37;;;;;;;26.61;43.42;101010.56;2848782;81;21609;-89
2022/08/08 11:32:12;;;;;;;1.32;0.50;;;;;;;26.64;44.36;101015.58;2888121;81;21573;-89
2022/08/08 11:36:15;;;;;;;2.10;0.93;;;;;;;26.69;43.35;101004.55;2796116;83;21027;-88
2022/08/08 11:40:16;;;;;;;0.68;0.42;;;;;;;26.73;43.99;101003.08;2789804;85;21008;-87
2022/08/08 11:44:22;;;;;;;2.27;0.80;;;;;;;26.87;43.99;100998.42;2798991;84;21580;-88
2022/08/08 11:48:24;;;;;;;1.22;0.93;;;;;;;26.83;43.02;101005.34;2830777;82;21051;-89
2022/08/08 11:52:26;;;;;;;1.62;0.78;;;;;;;26.74;43.36;101001.48;2797724;85;21083;-89
2022/08/08 11:56:33;;;;;;;0.78;0.62;;;;;;;26.66;43.53;101000.38;2834823;83;21013;-88
2022/08/08 12:00:47;;;;;;;2.60;0.50;;;;;;;26.41;43.34;101000.24;2816003;83;21007;-87
2022/08/08 12:04:51;;;;;;;1.45;0.72;;;;;;;26.32;44.37;101003.19;2851269;82;21033;-89
2022/08/08 12:09:08;;;;;;;1.27;0.65;;;;;;;26.16;46.06;101004.99;2847420;82;21135;-88
2022/08/08 12:13:14;;;;;;;0.95;0.60;;;;;;;26.04;45.09;101004.27;2865863;82;21027;-89
2022/08/08 12:17:15;;;;;;;2.22;0.85;;;;;;;26.16;45.12;101009.91;2890645;82;21086;-88
2022/08/08 12:21:27;;;;;;;0.65;0.57;;;;;;;26.47;45.86;100998.86;2858846;82;21066;-88
2022/08/08 12:25:33;;;;;;;0.95;0.57;;;;;;;26.41;44.76;100996.97;2895690;81;20995;-89
2022/08/08 12:29:40;;;;;;;;;;;;;;;26.52;44.70;100999.56;2900103;82;21039;-89
2022/08/08 12:33:44;;;;;;;6.73;2.00;;;;;;;26.64;44.89;100993.76;2896820;82;20094;-88
2022/08/08 12:38:07;;;;;;;5.33;0.90;;;;;;;26.87;46.45;100992.42;2887333;80;21068;-89
2022/08/08 12:42:08;;;;;;;2.05;0.80;;;;;;;27.17;43.95;100987.76;2891488;82;21050;-88
2022/08/08 12:46:17;;;;;;;0.82;0.65;;;;;;;27.43;43.53;100982.34;2900545;80;21026;-88
2022/08/08 12:50:19;;;;;;;1.72;1.00;;;;;;;27.37;42.41;100959.47;2898176;80;21563;-86
2022/08/08 12:54:31;;;;;;;2.47;0.90;;;;;;;27.37;42.41;100959.47;2872345;82;20987;-85
2022/08/08 12:58:51;;;;;;;0.65;0.55;;;;;;;27.56;43.56;100975.42;2888739;81;21066;-85
2022/08/08 13:02:57;;;;;;;3.40;1.02;;;;;;;27.55;42.26;100985.22;2924910;80;21082;-87
2022/08/08 13:07:07;;;;;;;2.55;0.88;;;;;;;27.20;42.59;100974.17;2870064;80;20986;-85
2022/08/08 13:11:26;;;;;;;2.00;0.93;;;;;;;26.86;42.33;100974.38;2882684;81;21011;-86
2022/08/08 13:15:29;;;;;;;1.05;0.68;;;;;;;26.67;42.43;100973.40;2864182;80;21038;-85
2022/08/08 13:19:31;;;;;;;0.70;0.60;;;;;;;26.83;43.58;100964.41;2870204;81;21043;-86
2022/08/08 13:23:33;;;;;;;0.57;0.57;;;;;;;27.06;42.78;100959.78;2827085;82;21007;-85
2022/08/08 13:27:34;;;;;;;1.92;1.20;;;;;;;27.22;42.40;100954.34;2855986;82;21039;-86
2022/08/08 13:31:49;;;;;;;1.22;0.82;;;;;;;27.25;42.81;100958.50;2816039;82;29912;-86
2022/08/08 13:35:54;;;;;;;0.80;0.62;;;;;;;27.26;43.04;100956.93;2867628;82;21085;-85
2022/08/08 13:39:57;;;;;;;2.42;1.70;;;;;;;27.36;43.28;100951.80;2843163;83;21000;-84
2022/08/08 13:44:02;;;;;;;1.52;1.25;;;;;;;27.41;43.42;100951.14;2848300;82;21027;-85
2022/08/08 13:48:14;;;;;;;1.50;0.70;;;;;;;27.49;43.40;100961.77;2836613;82;21016;-84
2022/08/08 13:52:16;;;;;;;0.90;0.65;;;;;;;27.56;40.67;100963.67;2840813;83;21023;-88
2022/08/08 13:56:31;;;;;;;1.75;0.90;;;;;;;27.67;41.78;100953.36;2831744;82;21015;-87
2022/08/08 14:00:39;;;;;;;1.13;1.00;;;;;;;27.76;41.55;100950.66;2852047;82;21019;-87
2022/08/08 14:05:00;;;;;;;1.52;0.90;;;;;;;27.76;41.03;100947.93;2847797;83;21023;-85
2022/08/08 14:09:03;;;;;;;2.50;0.70;;;;;;;27.84;42.42;100950.06;2846249;82;20996;-86
2022/08/08 14:13:09;;;;;;;1.55;1.20;;;;;;;27.68;41.25;100960.50;2856193;81;21593;-85
2022/08/08 14:17:10;;;;;;;3.67;1.67;;;;;;;27.48;41.44;100954.64;2832314;82;21061;-85
2022/08/08 14:21:12;;;;;;;0.82;0.47;;;;;;;27.17;42.51;100947.31;2854696;81;21038;-83
2022/08/08 14:25:13;;;;;;;1.98;0.90;;;;;;;27.06;41.67;100954.31;2915952;80;21013;-85
2022/08/08 14:29:23;;;;;;;1.57;1.22;;;;;;;27.21;41.66;100952.64;2890528;80;21492;-85
2022/08/08 14:33:27;;;;;;;1.00;0.80;;;;;;;27.40;41.97;100952.71;2903576;80;21255;-84
2022/08/08 14:37:29;;;;;;;0.95;0.45;;;;;;;27.54;41.85;100957.59;2895289;80;21010;-87
2022/08/08 14:41:43;;;;;;;0.72;0.53;;;;;;;27.49;42.09;100955.48;2887921;80;21074;-85
2022/08/08 14:45:46;;;;;;;1.00;0.68;;;;;;;27.31;41.85;100959.83;2907741;79;21042;-86
2022/08/08 14:49:48;;;;;;;1.10;0.90;;;;;;;27.08;42.54;100959.02;2902010;81;21017;-85
2022/08/08 14:53:51;;;;;;;1.85;1.45;;;;;;;26.78;42.12;100956.88;2913961;80;21034;-85
2022/08/08 14:57:55;;;;;;;7.55;5.97;;;;;;;26.73;42.82;100956.70;2915113;80;20990;-87
2022/08/08 15:01:57;;;;;;;2.83;1.60;;;;;;;26.80;43.10;100954.22;2888376;80;21094;-88
2022/08/08 15:05:58;;;;;;;1.10;0.90;;;;;;;26.88;41.45;100955.89;2902328;80;21145;-88
2022/08/08 15:10:00;;;;;;;2.22;1.30;;;;;;;27.06;41.20;100952.95;2904127;80;21042;-87
2022/08/08 15:14:03;;;;;;;1.52;1.37;;;;;;;27.20;42.08;100951.81;2885372;81;21066;-86
2022/08/08 15:18:08;;;;;;;2.92;2.17;;;;;;;27.43;41.40;100953.66;2897206;80;21098;-87
2022/08/08 15:22:18;;;;;;;7.85;3.00;;;;;;;27.53;41.17;100951.28;2834906;82;21102;-86
2022/08/08 15:26:23;;;;;;;3.80;2.50;;;;;;;27.46;41.30;100951.30;2881696;80;21023;-88
2022/08/08 15:30:25;;;;;;;4.95;1.40;;;;;;;27.40;41.81;100954.08;2858569;82;21070;-86
2022/08/08 15:34:28;;;;;;;2.83;2.10;;;;;;;27.22;41.81;100950.24;2906937;80;21021;-86
2022/08/08 15:38:31;;;;;;;3.35;2.20;;;;;;;27.09;41.91;100950.62;2906674;80;21022;-86
2022/08/08 15:42:33;;;;;;;3.87;2.35;;;;;;;27.08;41.98;100949.47;2915486;81;21021;-88
2022/08/08 15:46:35;;;;;;;0.95;0.80;;;;;;;27.22;41.71;100952.42;2885586;81;21625;-87
2022/08/08 15:54:57;;;;;;;1.42;0.98;;;;;;;27.41;40.33;100945.67;2828433;82;21059;-86
2022/08/08 15:58:58;;;;;;;1.47;1.15;;;;;;;27.58;41.01;100945.16;2854262;82;21102;-87
2022/08/08 16:03:02;;;;;;;2.00;1.50;;;;;;;27.63;41.10;100948.05;2855295;81;21029;-88
2022/08/08 16:07:04;;;;;;;3.00;1.80;;;;;;;27.44;41.58;100945.23;2864352;81;20997;-83
2022/08/08 16:11:06;;;;;;;1.98;1.30;;;;;;;27.33;41.81;100945.96;2843289;80;21070;-87
2022/08/08 16:15:08;;;;;;;5.30;2.60;;;;;;;27.05;41.94;100943.95;2824364;82;21109;-85
2022/08/08 16:19:10;;;;;;;5.50;2.42;;;;;;;26.77;43.52;100942.37;2841590;82;21000;-87
2022/08/08 16:23:11;;;;;;;1.45;0.80;;;;;;;26.45;43.40;100952.39;2847883;83;21016;-88
2022/08/08 16:27:13;;;;;;;2.47;1.32;;;;;;;26.17;44.01;100957.62;2837477;82;20992;-87
2022/08/08 16:31:15;;;;;;;5.40;1.42;;;;;;;25.95;45.08;100959.22;2846498;82;21000;-88
2022/08/08 16:35:17;;;;;;;1.60;1.12;;;;;;;25.78;44.90;100959.65;2849869;82;21000;-87
2022/08/08 16:39:19;;;;;;;1.52;1.05;;;;;;;25.80;44.27;100953.46;2850022;83;20988;-88
2022/08/08 16:43:21;;;;;;;0.78;0.47;;;;;;;25.84;43.25;100949.77;2850272;82;21023;-88
2022/08/08 16:47:26;;;;;;;2.75;1.35;;;;;;;25.88;43.06;100951.55;2843289;77;21503;-88
2022/08/08 16:51:28;;;;;;;2.25;1.05;;;;;;;25.95;42.85;100953.22;2850547;82;21081;-89
2022/08/08 16:55:29;;;;;;;3.10;1.22;;;;;;;25.97;43.37;100953.53;2848956;82;21043;-87
2022/08/08 16:59:31;;;;;;;2.20;1.15;;;;;;;25.94;43.41;100954.78;2828073;83;21027;-87
2022/08/08 17:03:32;;;;;;;3.95;1.17;;;;;;;25.90;43.12;100957.62;2830042;82;20979;-87
2022/08/08 17:07:36;;;;;;;20.72;2.33;;;;;;;25.85;43.93;100961.52;2823829;82;21039;-90
2022/08/08 17:11:38;;;;;;;1.30;1.20;;;;;;;25.71;44.06;100962.87;2849541;82;21050;-87
2022/08/08 17:15:40;;;;;;;5.25;1.55;;;;;;;25.56;44.08;100956.83;2830665;83;21051;-90
2022/08/08 17:19:50;;;;;;;1.37;0.80;;;;;;;25.46;43.87;100960.77;2850246;81;21657;-89
2022/08/08 17:23:52;;;;;;;2.27;1.15;;;;;;;25.31;44.54;100962.84;2893238;81;21003;-87
2022/08/08 17:27:53;;;;;;;2.15;1.00;;;;;;;25.21;45.69;100960.52;2913097;80;21502;-87
2022/08/08 17:31:55;;;;;;;7.87;2.35;;;;;;;25.12;46.26;100965.31;2852182;82;21033;-89
2022/08/08 17:35:57;;;;;;;5.62;2.62;;;;;;;25.04;47.04;100969.60;2875623;82;20952;-90
2022/08/08 17:39:59;;;;;;;8.85;3.33;;;;;;;24.99;47.23;100966.66;2893382;81;21035;-91
2022/08/08 17:44:00;;;;;;;7.70;5.40;;;;;;;24.92;47.59;100974.27;2903298;80;21535;-90
2022/08/08 17:48:02;;;;;;;11.53;4.40;;;;;;;24.85;47.90;100980.22;2879721;80;21014;-89
2022/08/08 17:52:06;;;;;;;3.12;2.47;;;;;;;24.75;48.21;100983.33;2880149;82;21573;-89
2022/08/08 17:56:09;;;;;;;3.37;1.45;;;;;;;24.65;48.43;100979.59;2810151;80;21146;-87
2022/08/08 18:00:13;;;;;;;1.30;1.10;;;;;;;24.55;48.45;100983.19;2809816;82;21015;-88
2022/08/08 18:04:19;;;;;;;4.25;2.08;;;;;;;24.44;48.58;100984.60;2862938;80;21074;-88
2022/08/08 18:08:21;;;;;;;5.72;2.52;;;;;;;24.36;48.59;100992.94;2861471;81;21031;-87
2022/08/08 18:12:23;;;;;;;2.12;1.92;;;;;;;24.24;48.79;100988.05;2870577;81;21073;-88
2022/08/08 18:16:24;;;;;;;6.55;2.58;;;;;;;24.11;48.90;100993.42;2906250;81;21593;-89
2022/08/08 18:20:26;;;;;;;4.37;1.57;;;;;;;23.99;49.51;100990.88;2884127;82;21050;-88
2022/08/08 18:24:28;;;;;;;4.40;1.75;;;;;;;23.85;49.15;101002.17;2852140;82;21007;-86
2022/08/08 18:28:29;;;;;;;1.55;1.45;;;;;;;23.70;49.62;101005.81;2859760;81;21529;-88
2022/08/08 18:32:31;;;;;;;2.72;1.70;;;;;;;23.57;49.64;101005.67;2928664;80;21035;-88
2022/08/08 18:36:32;;;;;;;3.65;1.30;;;;;;;23.41;51.36;101014.42;2913057;80;21052;-88
2022/08/08 18:40:34;;;;;;;6.85;1.70;;;;;;;23.24;51.64;101012.42;2886688;81;21147;-88
2022/08/08 18:44:35;;;;;;;4.08;2.05;;;;;;;23.05;53.01;101015.26;2906367;80;21014;-89
2022/08/08 18:48:38;;;;;;;6.83;2.83;;;;;;;22.85;54.75;101021.28;2848358;83;21042;-88
2022/08/08 18:52:40;;;;;;;10.50;3.37;;;;;;;22.63;54.71;101028.49;2849068;82;21046;-87
2022/08/08 18:56:42;;;;;;;36.30;8.00;;;;;;;22.45;55.30;101036.98;2908683;81;21503;-88
2022/08/08 19:00:44;;;;;;;27.25;7.45;;;;;;;22.31;55.59;101042.72;2849922;80;21015;-88
2022/08/08 19:04:45;;;;;;;23.65;6.05;;;;;;;;;;2867770;82;21045;-89
2022/08/08 19:08:47;;;;;;;15.35;6.10;;;;;;;22.00;57.12;101047.22;2851656;82;21004;-89
2022/08/08 19:12:48;;;;;;;11.43;4.62;;;;;;;21.85;57.96;101049.06;2887481;81;21054;-87
2022/08/08 19:16:52;;;;;;;10.75;5.85;;;;;;;21.65;58.48;101048.20;2906956;81;21010;-90
2022/08/08 19:20:54;;;;;;;25.57;13.65;;;;;;;21.45;58.42;101049.14;2892197;81;21011;-88
2022/08/08 19:24:56;;;;;;;19.62;15.45;;;;;;;21.28;58.65;101052.47;2898759;81;21061;-86
2022/08/08 19:29:01;;;;;;;16.65;11.93;;;;;;;21.09;59.43;101053.25;2895137;81;21054;-87
2022/08/08 19:33:02;;;;;;;12.82;8.13;;;;;;;20.95;60.33;101053.48;2899988;80;21011;-87